Time;durP1;ratioP1;P1;durP2;ratioP2;P2;SDS_P1;SDS_P2;PMS_P1;PMS_P2;Temp;Humidity;BMP_temperature;BMP_pressure;BME280_temperature;BME280_humidity;BME280_pressure;Samples;Min_cycle;Max_cycle;Signal;HPM_P1;HPM_P2
2023/03/20 00:01:56;;;;;;;5.67;3.47;;;;;;;12.80;71.65;100809.41;5053978;28;20706;-69
2023/03/20 00:04:25;;;;;;;4.77;3.20;;;;;;;12.86;71.16;100813.25;5055582;28;20220;-69
2023/03/20 00:06:53;;;;;;;5.57;3.60;;;;;;;12.92;70.93;100824.16;5056134;28;20308;-69
2023/03/20 00:09:21;;;;;;;5.00;3.60;;;;;;;12.89;71.15;100831.59;5054398;28;20235;-69
2023/03/20 00:11:50;;;;;;;5.67;3.80;;;;;;;12.83;71.71;100835.72;5053211;28;20906;-68
2023/03/20 00:14:21;;;;;;;5.80;3.50;;;;;;;12.81;71.74;100840.34;5055438;28;20215;-69
2023/03/20 00:16:50;;;;;;;5.10;3.73;;;;;;;12.82;71.71;100820.75;5057780;28;20227;-69
2023/03/20 00:19:19;;;;;;;5.07;3.90;;;;;;;12.79;71.88;100834.34;5056246;28;20212;-69
2023/03/20 00:21:50;;;;;;;5.40;3.60;;;;;;;12.84;71.65;100836.56;5054361;28;20302;-68
2023/03/20 00:24:18;;;;;;;6.00;3.97;;;;;;;12.91;71.36;100834.94;5054548;28;20206;-69
2023/03/20 00:26:48;;;;;;;5.70;3.73;;;;;;;12.82;71.85;100840.22;5052004;28;20218;-69
2023/03/20 00:29:22;;;;;;;5.03;3.30;;;;;;;12.83;71.76;100846.38;5051726;28;20388;-69
2023/03/20 00:31:51;;;;;;;6.03;3.90;;;;;;;12.81;71.83;100846.50;5054877;28;20212;-68
2023/03/20 00:34:22;;;;;;;8.03;4.27;;;;;;;12.84;71.90;100849.88;5056110;28;20217;-68
2023/03/20 00:36:51;;;;;;;5.13;3.40;;;;;;;12.85;71.53;100849.69;5056284;28;20200;-69
2023/03/20 00:39:19;;;;;;;5.13;3.60;;;;;;;12.84;71.70;100847.19;5074915;28;20230;-68
2023/03/20 00:41:51;;;;;;;6.93;4.30;;;;;;;12.85;71.39;100844.38;5072701;28;20214;-68
2023/03/20 00:44:22;;;;;;;6.20;4.37;;;;;;;12.88;71.13;100837.91;5074537;28;20203;-68
2023/03/20 00:46:53;;;;;;;7.10;4.50;;;;;;;12.81;71.61;100843.84;5075155;28;20210;-69
2023/03/20 00:49:25;;;;;;;7.83;4.43;;;;;;;12.77;72.03;100845.13;5073838;28;20223;-69
2023/03/20 00:51:54;;;;;;;5.90;3.93;;;;;;;12.78;71.91;100851.28;5072631;28;20954;-68
2023/03/20 00:54:22;;;;;;;8.93;4.10;;;;;;;12.77;72.11;100857.59;5071056;28;20210;-69
2023/03/20 00:56:54;;;;;;;7.83;4.53;;;;;;;12.81;72.05;100848.34;5076828;28;20203;-68
2023/03/20 00:59:25;;;;;;;5.87;4.10;;;;;;;12.78;72.30;100853.97;5073141;28;20205;-69
2023/03/20 01:01:53;;;;;;;9.47;4.90;;;;;;;12.81;71.73;100846.50;5075425;28;20307;-68
2023/03/20 01:04:21;;;;;;;7.73;4.47;;;;;;;12.87;71.50;100847.72;5072338;28;20207;-68
2023/03/20 01:06:49;;;;;;;6.67;4.30;;;;;;;12.83;71.47;100851.69;5069719;28;20211;-68
2023/03/20 01:09:18;;;;;;;6.77;4.63;;;;;;;12.84;71.57;100849.88;5072141;28;20227;-69
2023/03/20 01:11:46;;;;;;;6.47;4.30;;;;;;;12.87;71.40;100845.06;5070692;28;20697;-68
2023/03/20 01:14:16;;;;;;;5.60;4.07;;;;;;;12.88;71.16;100849.38;5071734;28;20227;-69
2023/03/20 01:16:44;;;;;;;7.90;4.53;;;;;;;12.90;71.35;100846.56;5074723;28;20222;-70
2023/03/20 01:19:13;;;;;;;7.20;4.30;;;;;;;12.88;71.54;100849.38;5074008;28;20207;-69
2023/03/20 01:21:41;;;;;;;5.63;3.90;;;;;;;12.93;71.10;100844.44;5069335;28;20214;-71
2023/03/20 01:24:10;;;;;;;5.63;4.07;;;;;;;12.93;71.37;100855.06;5073825;28;20230;-69
2023/03/20 01:26:40;;;;;;;6.13;4.03;;;;;;;12.96;71.04;100852.13;5069502;28;20675;-69
2023/03/20 01:29:18;;;;;;;7.50;4.00;;;;;;;13.01;70.83;100843.69;5053179;28;20220;-70
2023/03/20 01:31:46;;;;;;;8.50;4.57;;;;;;;12.95;71.17;100855.75;5049622;28;20283;-69
2023/03/20 01:34:15;;;;;;;5.00;3.20;;;;;;;12.95;71.18;100857.59;5051277;28;20204;-69
2023/03/20 01:36:46;;;;;;;7.00;3.87;;;;;;;12.93;71.05;100864.91;5054023;28;20579;-71
2023/03/20 01:39:14;;;;;;;5.83;3.23;;;;;;;12.90;71.39;100855.41;5070365;28;20956;-70
2023/03/20 01:41:44;;;;;;;5.97;3.70;;;;;;;12.96;70.93;100860.09;5072622;28;20269;-68
2023/03/20 01:44:20;;;;;;;5.67;3.77;;;;;;;12.96;71.17;100864.59;5071111;28;20218;-70
2023/03/20 01:46:49;;;;;;;6.53;4.07;;;;;;;12.93;71.12;100867.56;5074262;28;20210;-69
2023/03/20 01:49:50;;;;;;;8.37;4.63;;;;;;;12.88;71.41;100860.03;5071995;28;20234;-70
2023/03/20 01:52:18;;;;;;;7.40;5.00;;;;;;;12.87;71.74;100862.84;5044485;28;21182;-69
2023/03/20 01:54:46;;;;;;;8.90;6.20;;;;;;;12.87;71.46;100868.16;5072989;28;20213;-69
2023/03/20 01:57:18;;;;;;;9.43;6.23;;;;;;;12.75;72.34;100863.06;5073284;28;20214;-70
2023/03/20 01:59:50;;;;;;;10.33;7.27;;;;;;;12.76;72.39;100866.56;5070209;28;20294;-70
2023/03/20 02:02:21;;;;;;;15.97;7.30;;;;;;;12.74;72.63;100864.09;5073141;28;20242;-69
2023/03/20 02:04:53;;;;;;;9.77;7.17;;;;;;;12.76;72.48;100870.06;5070973;28;20213;-70
2023/03/20 02:07:23;;;;;;;11.53;7.67;;;;;;;12.76;72.79;100866.56;5072080;28;20240;-69
2023/03/20 02:09:51;;;;;;;11.77;8.50;;;;;;;12.76;72.84;100855.94;5072680;28;20231;-69
2023/03/20 02:12:21;;;;;;;16.27;9.13;;;;;;;12.74;73.06;100864.09;5074537;28;20895;-69
2023/03/20 02:14:51;;;;;;;14.77;9.37;;;;;;;12.80;72.54;100862.63;5074113;28;20207;-70
2023/03/20 02:17:19;;;;;;;12.03;8.23;;;;;;;12.76;72.84;100866.56;5072394;28;20211;-70
2023/03/20 02:19:57;;;;;;;14.60;9.10;;;;;;;12.72;72.88;100865.22;5075401;28;20234;-69
2023/03/20 02:22:45;;;;;;;13.10;8.70;;;;;;;12.60;73.84;100861.94;5075230;28;20325;-69
2023/03/20 02:25:39;;;;;;;14.17;9.67;;;;;;;12.60;74.02;100864.59;5073640;28;20199;-70
2023/03/20 02:28:37;;;;;;;15.93;11.00;;;;;;;12.59;74.40;100867.41;5072798;28;20296;-69
2023/03/20 02:31:34;;;;;;;15.73;10.97;;;;;;;12.64;73.96;100857.16;5068847;28;20832;-70
2023/03/20 02:35:05;;;;;;;16.57;11.50;;;;;;;12.69;73.95;100862.84;5071338;28;20222;-69
2023/03/20 02:38:01;;;;;;;15.93;11.43;;;;;;;12.71;73.82;100863.53;4952688;28;20243;-70
2023/03/20 02:40:38;;;;;;;18.53;12.43;;;;;;;12.74;73.54;100860.59;4992390;28;20208;-70
2023/03/20 02:43:16;;;;;;;16.13;11.40;;;;;;;12.69;73.87;100862.84;5035728;28;20199;-68
2023/03/20 02:45:52;;;;;;;16.60;11.27;;;;;;;12.71;73.88;100864.38;5048460;28;20325;-70
2023/03/20 02:48:33;;;;;;;15.10;10.93;;;;;;;12.77;73.39;100871.75;5054672;28;20206;-68
2023/03/20 02:51:05;;;;;;;16.03;11.73;;;;;;;12.77;73.82;100878.88;5052177;28;20239;-69
2023/03/20 02:53:46;;;;;;;15.43;10.83;;;;;;;12.76;73.83;100871.88;5053354;28;20773;-69
2023/03/20 02:56:19;;;;;;;18.07;12.03;;;;;;;12.71;74.09;100880.34;5052043;28;20298;-68
2023/03/20 02:58:51;;;;;;;16.70;11.77;;;;;;;12.78;73.87;100873.41;5053320;28;20211;-68
2023/03/20 03:01:24;;;;;;;17.87;11.00;;;;;;;12.79;73.75;100876.91;5050326;28;20231;-68
2023/03/20 03:03:56;;;;;;;16.53;11.40;;;;;;;12.77;74.00;100885.06;5053904;28;20257;-70
2023/03/20 03:06:28;;;;;;;17.33;12.43;;;;;;;12.79;73.97;100876.91;5052355;28;20624;-68
2023/03/20 03:09:02;;;;;;;18.30;12.20;;;;;;;12.75;74.21;100883.56;5051829;28;20241;-69
2023/03/20 03:11:34;;;;;;;19.47;11.77;;;;;;;12.78;74.29;100885.88;5050101;28;20222;-68
2023/03/20 03:14:03;;;;;;;18.73;12.40;;;;;;;12.76;74.28;100879.88;5052375;28;20223;-69
2023/03/20 03:16:35;;;;;;;17.23;12.27;;;;;;;12.74;74.50;100879.22;5049817;28;20208;-69
2023/03/20 03:19:08;;;;;;;17.20;11.83;;;;;;;12.77;74.34;100865.59;5051150;28;20207;-69
2023/03/20 03:21:39;;;;;;;19.43;11.50;;;;;;;12.77;74.26;100870.91;5049695;28;20214;-69
2023/03/20 03:24:23;;;;;;;16.63;11.20;;;;;;;12.78;74.31;100870.75;5052858;28;20218;-69
2023/03/20 03:27:13;;;;;;;18.60;12.60;;;;;;;12.76;74.30;100863.91;5054022;28;20210;-70
2023/03/20 03:29:42;;;;;;;17.87;11.93;;;;;;;12.81;74.28;100858.97;5047894;28;20218;-69
2023/03/20 03:32:24;;;;;;;18.33;12.90;;;;;;;12.87;73.68;100857.53;5050803;28;20207;-69
2023/03/20 03:34:53;;;;;;;17.10;12.40;;;;;;;12.85;73.75;100859.50;5051521;28;20204;-69
2023/03/20 03:37:30;;;;;;;21.47;12.77;;;;;;;12.89;73.42;100855.56;5054291;28;20257;-68
2023/03/20 03:40:10;;;;;;;19.33;12.60;;;;;;;12.89;73.87;100861.72;5071166;28;20933;-69
2023/03/20 03:42:41;;;;;;;18.87;12.67;;;;;;;12.91;73.67;100862.41;5072406;28;20205;-69
2023/03/20 03:45:13;;;;;;;19.23;12.90;;;;;;;12.88;73.68;100865.34;5074529;28;20199;-69
2023/03/20 03:47:46;;;;;;;17.77;11.90;;;;;;;12.87;73.79;100869.00;5076011;28;20199;-69
2023/03/20 03:50:20;;;;;;;19.77;13.00;;;;;;;12.88;73.99;100869.84;5072852;28;20620;-69
2023/03/20 03:52:51;;;;;;;19.07;12.77;;;;;;;12.92;73.85;100880.03;5074745;28;20670;-70
2023/03/20 03:55:25;;;;;;;19.23;12.53;;;;;;;12.93;74.03;100887.00;5074738;28;20203;-69
2023/03/20 03:57:58;;;;;;;19.33;12.50;;;;;;;12.96;73.80;100884.06;5073650;28;20210;-70
2023/03/20 04:00:27;;;;;;;18.80;13.50;;;;;;;12.96;73.79;100886.72;5073540;28;20203;-69
2023/03/20 04:02:58;;;;;;;19.83;12.97;;;;;;;12.94;73.96;100883.38;5074439;28;20881;-69
2023/03/20 04:05:30;;;;;;;19.20;12.23;;;;;;;12.95;73.74;100882.38;5075326;28;20210;-69
2023/03/20 04:08:02;;;;;;;21.23;14.10;;;;;;;12.96;73.88;100893.88;5075633;28;20287;-69
2023/03/20 04:10:31;;;;;;;21.43;14.60;;;;;;;12.98;73.65;100887.41;5075924;28;20214;-68
2023/03/20 04:12:59;;;;;;;22.33;14.60;;;;;;;12.99;73.83;100883.75;5077206;28;20234;-69
2023/03/20 04:15:27;;;;;;;22.67;13.90;;;;;;;13.02;73.56;100888.75;5075314;28;20255;-69
2023/03/20 04:17:55;;;;;;;21.23;13.77;;;;;;;13.04;73.21;100886.78;5074579;28;20236;-69
2023/03/20 04:20:23;;;;;;;23.47;15.47;;;;;;;12.96;74.38;100883.22;5073504;28;20196;-70
2023/03/20 04:22:51;;;;;;;20.97;13.67;;;;;;;12.92;74.39;100885.38;5075132;28;20225;-69
2023/03/20 04:25:20;;;;;;;22.50;14.90;;;;;;;12.95;74.33;100885.03;5077148;28;20210;-68
2023/03/20 04:27:50;;;;;;;23.83;14.47;;;;;;;12.94;74.33;100890.53;5075473;28;20257;-68
2023/03/20 04:30:18;;;;;;;22.27;14.23;;;;;;;12.88;74.68;100881.31;5072566;28;21936;-69
2023/03/20 04:32:46;;;;;;;26.40;15.20;;;;;;;12.86;75.16;100888.63;5071143;28;20233;-70
2023/03/20 04:35:13;;;;;;;24.40;14.47;;;;;;;12.81;75.99;100886.44;5073665;28;20210;-69
2023/03/20 04:37:41;;;;;;;23.03;14.67;;;;;;;12.84;75.97;100890.59;5077107;28;20247;-69
2023/03/20 04:40:10;;;;;;;24.13;14.63;;;;;;;12.89;75.47;100891.00;5073933;28;20306;-70
2023/03/20 04:42:38;;;;;;;24.33;15.17;;;;;;;12.89;75.72;100893.66;5073796;28;21179;-70
2023/03/20 04:45:09;;;;;;;23.00;15.20;;;;;;;12.91;75.85;100896.16;5075921;28;20219;-70
2023/03/20 04:47:37;;;;;;;21.67;14.37;;;;;;;12.89;76.14;100898.13;5074041;28;20268;-69
2023/03/20 04:50:06;;;;;;;21.37;14.33;;;;;;;12.85;76.27;100904.75;5072698;28;20214;-68
2023/03/20 04:52:33;;;;;;;21.63;14.07;;;;;;;12.80;76.83;100906.03;5076755;28;20241;-68
2023/03/20 04:55:01;;;;;;;24.83;15.50;;;;;;;12.82;76.57;100901.41;5075045;28;20207;-69
2023/03/20 04:57:30;;;;;;;22.00;14.13;;;;;;;12.86;76.44;100901.09;5071941;28;20576;-69
2023/03/20 04:59:58;;;;;;;24.13;15.20;;;;;;;12.93;76.17;100900.31;5072031;28;20210;-70
2023/03/20 05:02:27;;;;;;;24.27;14.43;;;;;;;12.96;76.02;100905.34;5072287;28;20614;-70
2023/03/20 05:04:55;;;;;;;25.33;16.20;;;;;;;12.92;76.18;100895.19;5073229;28;20714;-68
2023/03/20 05:07:22;;;;;;;24.40;15.57;;;;;;;12.83;76.96;100907.56;5074067;28;20232;-68
2023/03/20 05:09:50;;;;;;;24.17;15.80;;;;;;;12.77;77.24;100908.16;5072359;28;20234;-69
2023/03/20 05:12:18;;;;;;;26.57;16.60;;;;;;;12.74;77.90;100909.31;5070444;28;20231;-70
2023/03/20 05:14:46;;;;;;;25.33;15.63;;;;;;;12.76;78.13;100917.97;5071192;28;20211;-69
2023/03/20 05:17:14;;;;;;;26.40;16.73;;;;;;;12.81;78.14;100917.53;5072862;28;20347;-70
2023/03/20 05:19:43;;;;;;;24.43;15.47;;;;;;;12.81;78.06;100917.53;5073125;28;20309;-70
2023/03/20 05:22:11;;;;;;;25.63;15.70;;;;;;;12.82;77.56;100916.53;5070184;28;20203;-69
2023/03/20 05:24:38;;;;;;;28.30;15.43;;;;;;;12.93;76.91;100920.81;5071794;28;20578;-69
2023/03/20 05:27:06;;;;;;;26.30;15.63;;;;;;;12.98;76.52;100916.69;5074182;28;20220;-70
2023/03/20 05:29:34;;;;;;;24.77;16.13;;;;;;;12.82;77.54;100913.88;5070599;28;20214;-70
2023/03/20 05:32:01;;;;;;;26.90;16.97;;;;;;;12.79;77.49;100914.19;5071254;28;20237;-70
2023/03/20 05:34:29;;;;;;;25.17;16.37;;;;;;;12.78;77.77;100907.19;5071057;28;20235;-70
2023/03/20 05:36:59;;;;;;;27.67;17.03;;;;;;;12.86;77.48;100899.28;5073761;28;20850;-69
2023/03/20 05:39:26;;;;;;;29.03;17.00;;;;;;;12.72;78.18;100902.47;5052565;28;20346;-69
2023/03/20 05:41:54;;;;;;;25.43;16.77;;;;;;;12.60;78.84;100909.00;5051646;28;20207;-70
2023/03/20 05:44:22;;;;;;;26.37;15.77;;;;;;;12.61;79.10;100908.00;5051098;28;20213;-69
2023/03/20 05:46:50;;;;;;;22.87;15.00;;;;;;;12.73;78.28;100901.50;5053170;28;20295;-70
2023/03/20 05:49:18;;;;;;;24.23;14.43;;;;;;;12.74;78.38;100900.50;5052033;28;20238;-69
2023/03/20 05:51:46;;;;;;;23.67;15.07;;;;;;;12.66;79.06;100905.75;5050268;28;20230;-69
2023/03/20 05:54:15;;;;;;;25.73;16.47;;;;;;;12.66;79.25;100913.72;5054533;28;20667;-68
2023/03/20 05:56:43;;;;;;;24.53;14.73;;;;;;;12.71;79.11;100917.59;5053540;28;20203;-69
2023/03/20 05:59:12;;;;;;;24.03;16.03;;;;;;;12.72;79.28;100931.75;5055016;28;20212;-68
2023/03/20 06:01:40;;;;;;;24.13;15.47;;;;;;;12.75;78.86;100932.25;5055244;28;20210;-69
2023/03/20 06:04:07;;;;;;;24.00;15.17;;;;;;;12.75;78.90;100936.78;5050843;28;20673;-70
2023/03/20 06:06:36;;;;;;;27.63;15.87;;;;;;;12.76;78.82;100939.25;5052804;28;20219;-71
2023/03/20 06:09:04;;;;;;;22.83;15.63;;;;;;;12.82;78.41;100940.50;5055048;28;20215;-70
2023/03/20 06:11:34;;;;;;;22.77;15.03;;;;;;;12.89;77.79;100932.75;5051020;28;20232;-69
2023/03/20 06:14:04;;;;;;;22.57;14.87;;;;;;;12.91;77.58;100933.44;5053386;28;20900;-68
2023/03/20 06:16:32;;;;;;;22.67;14.83;;;;;;;12.93;77.44;100940.25;5054121;28;20579;-67
2023/03/20 06:18:59;;;;;;;23.57;14.80;;;;;;;12.95;77.41;100948.09;5054374;28;20207;-68
2023/03/20 06:21:27;;;;;;;20.50;14.30;;;;;;;13.00;76.96;100938.69;5053662;28;20342;-68
2023/03/20 06:23:55;;;;;;;21.90;15.30;;;;;;;13.03;76.45;100943.69;5054638;28;20208;-69
2023/03/20 06:26:23;;;;;;;22.50;15.27;;;;;;;13.01;76.89;100940.34;5054592;28;20755;-67
2023/03/20 06:28:52;;;;;;;24.20;14.33;;;;;;;12.95;78.01;100948.94;5053367;28;20207;-67
2023/03/20 06:31:20;;;;;;;25.40;16.30;;;;;;;12.95;78.15;100948.94;5053125;28;20211;-68
2023/03/20 06:33:47;;;;;;;22.07;15.30;;;;;;;12.97;78.14;100948.78;5055192;28;20345;-68
2023/03/20 06:36:15;;;;;;;24.33;15.23;;;;;;;13.00;78.64;100953.81;5056343;28;20220;-68
2023/03/20 06:38:43;;;;;;;24.13;15.73;;;;;;;13.00;79.11;100964.47;5070852;28;20232;-69
2023/03/20 06:41:11;;;;;;;26.30;16.87;;;;;;;12.99;79.09;100968.94;5073684;28;20294;-69
2023/03/20 06:43:48;;;;;;;23.70;15.53;;;;;;;12.95;79.21;100975.56;5077626;28;20249;-69
2023/03/20 06:46:17;;;;;;;21.60;15.23;;;;;;;12.96;79.08;100974.56;5076165;28;20212;-69
2023/03/20 06:48:44;;;;;;;26.20;16.13;;;;;;;12.90;79.55;100969.84;5075731;28;20216;-68
2023/03/20 06:51:18;;;;;;;25.03;15.23;;;;;;;12.86;79.94;100968.47;5074677;28;20214;-69
2023/03/20 06:53:46;;;;;;;27.23;16.47;;;;;;;12.84;80.19;100969.63;5073297;28;20276;-68
2023/03/20 06:56:14;;;;;;;25.07;16.37;;;;;;;12.88;80.14;100969.16;5074063;28;20632;-69
2023/03/20 06:58:41;;;;;;;29.70;17.60;;;;;;;12.94;80.10;100965.88;5074645;28;20207;-69
2023/03/20 07:01:14;;;;;;;27.40;17.80;;;;;;;12.95;80.96;100961.41;5074178;28;20210;-68
2023/03/20 07:03:43;;;;;;;24.43;15.47;;;;;;;12.92;80.72;100956.41;5074840;28;20210;-68
2023/03/20 07:06:12;;;;;;;28.80;16.90;;;;;;;12.95;80.14;100959.56;5072568;28;20209;-67
2023/03/20 07:08:40;;;;;;;28.93;18.57;;;;;;;12.98;80.96;100966.44;5072498;28;20252;-67
2023/03/20 07:11:08;;;;;;;35.73;22.33;;;;;;;13.05;80.67;100954.19;5071965;28;20214;-67
2023/03/20 07:13:36;;;;;;;32.70;19.30;;;;;;;12.98;81.19;100961.94;5072583;28;20231;-68
2023/03/20 07:16:05;;;;;;;38.20;23.20;;;;;;;12.99;81.39;100963.63;5072622;28;20577;-67
2023/03/20 07:18:33;;;;;;;29.13;17.23;;;;;;;12.94;81.25;100963.22;5075796;28;20271;-68
2023/03/20 07:21:04;;;;;;;31.97;20.00;;;;;;;12.95;81.41;100969.38;5075500;28;20203;-69
2023/03/20 07:23:49;;;;;;;28.30;17.87;;;;;;;12.89;81.06;100962.84;5077121;28;21167;-68
2023/03/20 07:26:17;;;;;;;31.30;17.50;;;;;;;12.74;82.34;100964.38;5075073;28;20215;-68
2023/03/20 07:28:45;;;;;;;33.03;19.07;;;;;;;12.73;83.19;100968.00;5077962;28;20211;-68
2023/03/20 07:31:19;;;;;;;28.33;16.67;;;;;;;12.78;83.35;100971.06;5078477;28;20294;-68
2023/03/20 07:33:47;;;;;;;25.87;16.80;;;;;;;12.80;82.83;100967.25;5077540;28;20305;-68
2023/03/20 07:36:16;;;;;;;35.73;19.00;;;;;;;12.82;83.18;100970.63;5076948;28;20323;-67
2023/03/20 07:38:44;;;;;;;28.30;18.40;;;;;;;12.86;83.00;100972.94;5076646;28;20238;-68
2023/03/20 07:41:12;;;;;;;34.67;18.47;;;;;;;12.92;82.21;100975.88;5075620;28;20218;-68
2023/03/20 07:43:40;;;;;;;31.67;18.47;;;;;;;12.90;81.96;100974.34;5076684;28;20225;-67
2023/03/20 07:46:11;;;;;;;30.67;17.73;;;;;;;12.85;82.89;100977.44;5078727;28;20245;-67
2023/03/20 07:48:39;;;;;;;32.50;18.17;;;;;;;12.83;83.25;100979.44;5078518;28;20211;-68
2023/03/20 07:51:07;;;;;;;28.30;17.77;;;;;;;12.91;82.58;100974.19;5078518;28;20211;-68
2023/03/20 07:53:36;;;;;;;31.20;19.13;;;;;;;13.00;82.23;100989.25;5076997;28;20250;-68
2023/03/20 07:56:04;;;;;;;28.20;18.03;;;;;;;13.08;81.88;100993.81;5076217;28;20212;-67
2023/03/20 07:58:32;;;;;;;30.07;17.63;;;;;;;13.17;81.34;100987.63;5077313;28;20211;-66
2023/03/20 08:00:59;;;;;;;29.80;18.00;;;;;;;13.16;81.30;100986.78;5075491;28;20206;-68
2023/03/20 08:03:27;;;;;;;29.93;17.53;;;;;;;13.17;81.00;100991.13;5076988;28;20199;-68
2023/03/20 08:05:55;;;;;;;30.67;18.47;;;;;;;13.20;80.85;100987.31;5077618;28;20302;-67
2023/03/20 08:08:24;;;;;;;28.30;17.37;;;;;;;13.24;80.58;100993.16;5077506;28;20230;-67
2023/03/20 08:10:53;;;;;;;28.17;16.80;;;;;;;13.25;80.61;100998.34;5080097;28;20640;-67
2023/03/20 08:13:21;;;;;;;30.37;19.83;;;;;;;13.29;80.66;100991.72;5077150;28;20752;-66
2023/03/20 08:15:48;;;;;;;27.10;17.47;;;;;;;13.28;80.54;100995.34;5079393;28;20200;-66
2023/03/20 08:18:16;;;;;;;27.63;16.67;;;;;;;13.30;80.52;100998.72;5074854;28;20230;-69
2023/03/20 08:20:44;;;;;;;27.27;17.83;;;;;;;13.33;80.27;100986.94;5074956;28;20223;-68
2023/03/20 08:23:11;;;;;;;26.63;16.90;;;;;;;13.34;79.46;100992.09;5072971;28;20323;-69
2023/03/20 08:25:39;;;;;;;25.17;16.63;;;;;;;13.35;79.54;100988.47;5076257;28;20686;-70
2023/03/20 08:28:10;;;;;;;29.73;16.27;;;;;;;13.40;79.28;100991.47;5078060;28;20212;-72
2023/03/20 08:30:38;;;;;;;31.03;18.93;;;;;;;13.41;79.34;101000.31;5075232;28;20216;-71
2023/03/20 08:33:06;;;;;;;29.73;18.47;;;;;;;13.46;78.79;101003.34;5079719;28;20916;-70
2023/03/20 08:35:34;;;;;;;33.37;18.47;;;;;;;13.47;78.42;101005.03;5079666;28;21000;-69
2023/03/20 08:38:02;;;;;;;31.20;18.50;;;;;;;13.48;78.03;101004.88;5080891;28;20319;-70
2023/03/20 08:40:30;;;;;;;31.57;18.70;;;;;;;13.51;78.49;101011.72;5075932;28;20829;-69
2023/03/20 08:42:59;;;;;;;31.37;18.23;;;;;;;13.54;77.51;101011.44;5078966;28;20203;-68
2023/03/20 08:45:28;;;;;;;25.57;16.83;;;;;;;13.50;77.48;101015.38;5077895;28;20202;-68
2023/03/20 08:47:55;;;;;;;23.30;15.60;;;;;;;13.53;76.81;101012.41;5077834;28;20963;-70
2023/03/20 08:50:23;;;;;;;27.13;16.10;;;;;;;13.51;76.79;101025.06;5076924;28;20214;-71
2023/03/20 08:52:51;;;;;;;26.33;16.00;;;;;;;13.49;76.54;101029.69;5078592;28;20355;-71
2023/03/20 08:55:19;;;;;;;24.43;16.30;;;;;;;13.49;76.44;101032.34;5080414;28;20744;-70
2023/03/20 08:57:47;;;;;;;22.63;14.47;;;;;;;13.49;76.21;101035.00;5078567;28;20204;-70
2023/03/20 09:00:18;;;;;;;27.30;15.57;;;;;;;13.50;76.27;101034.03;5076731;28;20305;-71
2023/03/20 09:02:47;;;;;;;24.03;14.43;;;;;;;13.54;75.98;101030.09;5075853;28;20217;-71
2023/03/20 09:05:15;;;;;;;24.10;15.30;;;;;;;13.60;75.90;101036.63;5076639;28;20998;-71
2023/03/20 09:07:44;;;;;;;26.60;15.70;;;;;;;13.67;75.33;101037.66;5078467;28;20261;-71
2023/03/20 09:10:12;;;;;;;28.17;16.50;;;;;;;13.62;75.70;101031.97;5075296;28;20219;-72
2023/03/20 09:12:40;;;;;;;26.27;16.57;;;;;;;13.62;76.05;101026.63;5074634;28;20221;-72
2023/03/20 09:15:08;;;;;;;28.40;15.97;;;;;;;13.68;75.98;101026.03;5077230;28;20326;-71
2023/03/20 09:17:36;;;;;;;24.70;15.20;;;;;;;13.82;75.12;101031.63;5077442;28;20217;-70
2023/03/20 09:20:07;;;;;;;24.47;15.27;;;;;;;13.92;74.80;101037.69;5074666;28;20216;-70
2023/03/20 09:22:35;;;;;;;27.40;16.23;;;;;;;14.02;75.16;101031.41;5074364;28;20282;-69
2023/03/20 09:25:03;;;;;;;24.30;13.13;;;;;;;14.10;74.35;101036.81;5076097;28;20211;-70
2023/03/20 09:27:31;;;;;;;22.47;13.23;;;;;;;14.08;73.27;101036.97;5077860;28;20203;-66
2023/03/20 09:29:58;;;;;;;22.03;12.93;;;;;;;14.15;72.71;101042.53;5076594;28;20300;-69
2023/03/20 09:32:26;;;;;;;19.20;11.87;;;;;;;14.03;72.16;101041.09;5075421;28;20205;-68
2023/03/20 09:34:54;;;;;;;20.57;12.57;;;;;;;14.04;72.26;101046.28;5076330;28;20233;-68
2023/03/20 09:37:23;;;;;;;18.97;11.47;;;;;;;14.11;72.08;101052.66;5075353;28;20235;-67
2023/03/20 09:39:51;;;;;;;17.17;11.53;;;;;;;14.13;72.27;101050.69;5075151;28;20220;-69
2023/03/20 09:42:32;;;;;;;18.63;11.70;;;;;;;14.17;72.64;101041.34;5075257;28;20202;-69
2023/03/20 09:45:10;;;;;;;18.93;11.97;;;;;;;14.32;72.47;101053.13;5074101;28;20209;-70
2023/03/20 09:47:46;;;;;;;17.60;10.47;;;;;;;14.58;70.87;101058.47;5074484;28;20275;-69
2023/03/20 09:50:24;;;;;;;15.80;10.80;;;;;;;14.83;69.63;101055.88;5074909;28;20979;-68
2023/03/20 09:52:59;;;;;;;15.13;10.40;;;;;;;14.96;67.67;101056.25;5075665;28;20217;-68
2023/03/20 09:55:34;;;;;;;16.40;11.13;;;;;;;14.99;66.83;101055.94;5077039;28;20222;-68
2023/03/20 09:58:10;;;;;;;16.10;10.97;;;;;;;14.88;66.72;101054.41;5072961;28;20286;-69
2023/03/20 10:00:40;;;;;;;14.03;9.77;;;;;;;14.86;66.70;101055.56;5073484;28;20229;-69
2023/03/20 10:03:17;;;;;;;15.17;10.10;;;;;;;14.89;64.90;101052.56;5075415;28;20225;-68
2023/03/20 10:05:50;;;;;;;14.57;10.07;;;;;;;15.05;63.85;101058.78;5075535;28;20667;-69
2023/03/20 10:08:26;;;;;;;14.50;9.60;;;;;;;15.21;62.14;101052.66;5075344;28;20246;-69
2023/03/20 10:11:04;;;;;;;13.93;9.37;;;;;;;15.43;61.35;101052.03;5073627;28;20293;-69
2023/03/20 10:13:48;;;;;;;13.93;9.40;;;;;;;15.60;60.94;101062.75;5075498;28;20287;-70
2023/03/20 10:16:24;;;;;;;15.03;8.63;;;;;;;15.80;59.66;101042.72;5075533;28;20222;-71
2023/03/20 10:19:04;;;;;;;12.77;8.33;;;;;;;18.06;54.22;101039.91;5078454;28;20215;-70
2023/03/20 10:21:39;;;;;;;11.33;7.93;;;;;;;22.07;43.64;101035.91;5072462;28;20206;-72
2023/03/20 10:24:18;;;;;;;12.07;8.77;;;;;;;23.50;39.51;101048.25;5076431;28;20206;-71
2023/03/20 10:26:47;;;;;;;11.87;8.43;;;;;;;23.51;38.78;101039.09;5076514;28;20217;-70
2023/03/20 10:29:25;;;;;;;10.77;7.60;;;;;;;22.63;39.28;101040.75;5075650;28;20227;-70
2023/03/20 10:31:58;;;;;;;9.37;7.20;;;;;;;21.43;41.41;101038.34;5074744;28;20229;-70
2023/03/20 10:34:41;;;;;;;9.70;7.37;;;;;;;21.32;42.27;101034.38;5074267;28;20313;-72
2023/03/20 10:37:23;;;;;;;9.83;7.03;;;;;;;21.43;41.89;101032.97;5071829;28;20210;-70
2023/03/20 10:40:04;;;;;;;11.90;8.57;;;;;;;20.76;42.54;101034.59;5074998;28;20347;-68
2023/03/20 10:42:37;;;;;;;11.97;8.13;;;;;;;19.77;44.48;101033.97;5076174;28;20234;-69
2023/03/20 10:45:15;;;;;;;10.73;7.97;;;;;;;19.07;45.81;101036.53;5074595;28;20560;-68
2023/03/20 10:47:45;;;;;;;13.93;9.33;;;;;;;18.86;46.38;101037.31;5075851;28;20214;-69
2023/03/20 10:50:17;;;;;;;14.90;9.33;;;;;;;18.47;48.05;101026.84;5074441;28;20785;-67
2023/03/20 10:52:48;;;;;;;13.70;9.70;;;;;;;18.77;47.58;101035.75;5076428;28;20758;-69
2023/03/20 10:55:21;;;;;;;15.73;10.73;;;;;;;19.69;46.86;101028.72;5079438;28;20335;-66
2023/03/20 10:57:55;;;;;;;15.40;10.27;;;;;;;20.60;44.28;101024.16;5078009;28;21084;-68
2023/03/20 11:00:25;;;;;;;14.63;10.93;;;;;;;23.31;39.79;101014.84;5072578;28;20202;-67
2023/03/20 11:02:54;;;;;;;14.07;10.10;;;;;;;23.88;37.92;101013.81;5077408;28;20219;-68
2023/03/20 11:05:25;;;;;;;13.70;10.07;;;;;;;22.68;39.15;101012.06;5078971;28;20203;-67
2023/03/20 11:08:02;;;;;;;16.27;10.50;;;;;;;21.75;40.92;101015.94;5079013;28;20222;-67
2023/03/20 11:10:33;;;;;;;13.27;9.40;;;;;;;21.37;41.48;101013.84;5076638;28;20222;-67
2023/03/20 11:13:15;;;;;;;14.43;9.48;;;;;;;21.32;40.64;101015.50;5081113;28;20214;-68
2023/03/20 11:15:43;;;;;;;12.03;9.23;;;;;;;20.88;41.71;101010.59;5078121;28;20312;-67
2023/03/20 11:18:13;;;;;;;11.33;9.20;;;;;;;20.57;40.88;101005.72;5077721;28;20214;-67
2023/03/20 11:20:47;;;;;;;13.07;8.53;;;;;;;20.62;40.53;100997.84;5077164;28;20302;-67
2023/03/20 11:23:17;;;;;;;10.37;8.57;;;;;;;20.55;38.79;100997.81;5080756;28;20214;-67
2023/03/20 11:25:51;;;;;;;10.37;8.43;;;;;;;21.07;39.36;101003.59;5080799;28;20227;-68
2023/03/20 11:28:24;;;;;;;12.20;8.25;;;;;;;20.75;39.58;100999.78;5078754;28;20218;-67
2023/03/20 11:30:58;;;;;;;12.83;8.50;;;;;;;20.20;40.87;101009.63;5077570;28;20220;-67
2023/03/20 11:33:38;;;;;;;10.53;8.23;;;;;;;19.98;40.75;101013.38;5080073;28;20744;-66